Main page
METAR-TAF:

METAR-TAF

Airports :

RAF Linton-on-Ouse

Linton-on-Ouse, England

latitude: 54-03N, longitude: 001-15W, elevation: 16 m

Current weather observation

The report was made 40 minutes ago, at 20:50 UTC
Wind 12 kt from the North/Northeast
Temperature 4°C
Humidity 81%
Pressure 1039 hPa
Visibility: 4400 m
haze

METAR: EGXU 282050Z AUTO 02012KT 4400 HZ FEW026/// SCT060/// 04/01 Q1039 RERA

Time: 21:30 (21:30 UTC)


TAF: missing

Weather observations and forecasts of more than 4000 airports (METAR and TAF reports).

The available stations are represented by yellow and red dots on the map.

Hover mouse over dot to see the name of the station.

Then click to see weather observations and forecasts.

To change the map : click on the green buttons with a black cross to zoom in, on the green button with a dash to zoom out, or on the green arrows for adjacent maps.


METAR-TAF: